sensor_id;sensor_type;location;lat;lon;timestamp;P1;durP1;ratioP1;P2;durP2;ratioP2
15689;SDS011;7945;48.816;11.506;2023-07-22T00:00:04;3.05;;;1.85;;
15689;SDS011;7945;48.816;11.506;2023-07-22T00:02:36;2.40;;;2.15;;
15689;SDS011;7945;48.816;11.506;2023-07-22T00:05:03;2.95;;;2.00;;
15689;SDS011;7945;48.816;11.506;2023-07-22T00:07:32;2.20;;;2.00;;
15689;SDS011;7945;48.816;11.506;2023-07-22T00:09:59;2.50;;;2.20;;
15689;SDS011;7945;48.816;11.506;2023-07-22T00:12:26;3.17;;;2.13;;
15689;SDS011;7945;48.816;11.506;2023-07-22T00:14:53;2.60;;;2.10;;
15689;SDS011;7945;48.816;11.506;2023-07-22T00:17:20;2.10;;;1.90;;
15689;SDS011;7945;48.816;11.506;2023-07-22T00:19:47;2.80;;;2.00;;
15689;SDS011;7945;48.816;11.506;2023-07-22T00:22:13;2.28;;;2.08;;
15689;SDS011;7945;48.816;11.506;2023-07-22T00:24:42;3.00;;;2.13;;
15689;SDS011;7945;48.816;11.506;2023-07-22T00:27:09;4.68;;;2.22;;
15689;SDS011;7945;48.816;11.506;2023-07-22T00:29:36;2.67;;;2.42;;
15689;SDS011;7945;48.816;11.506;2023-07-22T00:32:04;2.20;;;2.00;;
15689;SDS011;7945;48.816;11.506;2023-07-22T00:34:32;3.60;;;1.90;;
15689;SDS011;7945;48.816;11.506;2023-07-22T00:36:59;3.13;;;2.25;;
15689;SDS011;7945;48.816;11.506;2023-07-22T00:39:25;4.00;;;2.17;;
15689;SDS011;7945;48.816;11.506;2023-07-22T00:41:53;4.28;;;2.17;;
15689;SDS011;7945;48.816;11.506;2023-07-22T00:44:20;2.67;;;2.22;;
15689;SDS011;7945;48.816;11.506;2023-07-22T00:46:47;3.15;;;2.35;;
15689;SDS011;7945;48.816;11.506;2023-07-22T00:49:15;3.97;;;2.00;;
15689;SDS011;7945;48.816;11.506;2023-07-22T00:51:43;2.38;;;2.17;;
15689;SDS011;7945;48.816;11.506;2023-07-22T00:54:10;2.63;;;1.95;;
15689;SDS011;7945;48.816;11.506;2023-07-22T00:56:36;3.88;;;2.20;;
15689;SDS011;7945;48.816;11.506;2023-07-22T00:59:05;1.95;;;1.70;;
15689;SDS011;7945;48.816;11.506;2023-07-22T01:01:32;2.78;;;2.00;;
15689;SDS011;7945;48.816;11.506;2023-07-22T01:03:58;6.40;;;1.90;;
15689;SDS011;7945;48.816;11.506;2023-07-22T01:06:26;3.20;;;2.28;;
15689;SDS011;7945;48.816;11.506;2023-07-22T01:08:56;2.70;;;2.10;;
15689;SDS011;7945;48.816;11.506;2023-07-22T01:11:23;3.08;;;2.00;;
15689;SDS011;7945;48.816;11.506;2023-07-22T01:13:50;3.08;;;1.80;;
15689;SDS011;7945;48.816;11.506;2023-07-22T01:16:24;2.42;;;2.10;;
15689;SDS011;7945;48.816;11.506;2023-07-22T01:18:52;3.55;;;2.30;;
15689;SDS011;7945;48.816;11.506;2023-07-22T01:21:19;3.90;;;2.30;;
15689;SDS011;7945;48.816;11.506;2023-07-22T01:23:49;2.80;;;2.10;;
15689;SDS011;7945;48.816;11.506;2023-07-22T01:26:17;2.50;;;1.98;;
15689;SDS011;7945;48.816;11.506;2023-07-22T01:28:44;2.53;;;2.10;;
15689;SDS011;7945;48.816;11.506;2023-07-22T01:31:11;2.33;;;2.10;;
15689;SDS011;7945;48.816;11.506;2023-07-22T01:33:37;3.58;;;2.33;;
15689;SDS011;7945;48.816;11.506;2023-07-22T01:36:04;3.13;;;2.40;;
15689;SDS011;7945;48.816;11.506;2023-07-22T01:38:32;2.20;;;2.00;;
15689;SDS011;7945;48.816;11.506;2023-07-22T01:41:01;2.45;;;2.25;;
15689;SDS011;7945;48.816;11.506;2023-07-22T01:43:28;2.05;;;1.95;;
15689;SDS011;7945;48.816;11.506;2023-07-22T01:45:54;2.90;;;2.30;;
15689;SDS011;7945;48.816;11.506;2023-07-22T01:48:21;2.65;;;2.10;;
15689;SDS011;7945;48.816;11.506;2023-07-22T01:50:48;2.65;;;2.20;;
15689;SDS011;7945;48.816;11.506;2023-07-22T01:53:15;4.10;;;2.30;;
15689;SDS011;7945;48.816;11.506;2023-07-22T01:55:42;3.83;;;2.30;;
15689;SDS011;7945;48.816;11.506;2023-07-22T01:58:10;3.28;;;2.13;;
15689;SDS011;7945;48.816;11.506;2023-07-22T02:00:37;4.30;;;2.53;;
15689;SDS011;7945;48.816;11.506;2023-07-22T02:03:04;2.58;;;1.90;;
15689;SDS011;7945;48.816;11.506;2023-07-22T02:05:31;4.95;;;2.13;;
15689;SDS011;7945;48.816;11.506;2023-07-22T02:07:58;5.60;;;2.45;;
15689;SDS011;7945;48.816;11.506;2023-07-22T02:10:25;4.13;;;2.30;;
15689;SDS011;7945;48.816;11.506;2023-07-22T02:12:51;3.60;;;2.20;;
15689;SDS011;7945;48.816;11.506;2023-07-22T02:15:20;2.67;;;1.90;;
15689;SDS011;7945;48.816;11.506;2023-07-22T02:17:49;3.20;;;1.92;;
15689;SDS011;7945;48.816;11.506;2023-07-22T02:20:16;4.43;;;2.42;;
15689;SDS011;7945;48.816;11.506;2023-07-22T02:22:43;3.00;;;2.25;;
15689;SDS011;7945;48.816;11.506;2023-07-22T02:25:10;3.97;;;2.00;;
15689;SDS011;7945;48.816;11.506;2023-07-22T02:27:37;2.33;;;2.10;;
15689;SDS011;7945;48.816;11.506;2023-07-22T02:30:06;2.50;;;2.30;;
15689;SDS011;7945;48.816;11.506;2023-07-22T02:32:37;3.85;;;2.35;;
15689;SDS011;7945;48.816;11.506;2023-07-22T02:35:04;3.55;;;2.60;;
15689;SDS011;7945;48.816;11.506;2023-07-22T02:37:32;4.18;;;2.42;;
15689;SDS011;7945;48.816;11.506;2023-07-22T02:39:59;2.67;;;2.40;;
15689;SDS011;7945;48.816;11.506;2023-07-22T02:42:26;2.92;;;2.63;;
15689;SDS011;7945;48.816;11.506;2023-07-22T02:44:53;3.50;;;2.22;;
15689;SDS011;7945;48.816;11.506;2023-07-22T02:47:19;3.38;;;2.67;;
15689;SDS011;7945;48.816;11.506;2023-07-22T02:49:48;2.88;;;2.30;;
15689;SDS011;7945;48.816;11.506;2023-07-22T02:52:14;2.80;;;2.25;;
15689;SDS011;7945;48.816;11.506;2023-07-22T02:54:41;3.63;;;2.25;;
15689;SDS011;7945;48.816;11.506;2023-07-22T02:57:08;3.13;;;2.10;;
15689;SDS011;7945;48.816;11.506;2023-07-22T02:59:35;2.50;;;2.10;;
15689;SDS011;7945;48.816;11.506;2023-07-22T03:02:02;2.25;;;1.83;;
15689;SDS011;7945;48.816;11.506;2023-07-22T03:04:29;2.35;;;1.98;;
15689;SDS011;7945;48.816;11.506;2023-07-22T03:06:57;3.47;;;2.30;;
15689;SDS011;7945;48.816;11.506;2023-07-22T03:09:24;2.60;;;2.03;;
15689;SDS011;7945;48.816;11.506;2023-07-22T03:11:51;3.95;;;2.20;;
15689;SDS011;7945;48.816;11.506;2023-07-22T03:14:17;3.28;;;2.50;;
15689;SDS011;7945;48.816;11.506;2023-07-22T03:16:45;3.13;;;2.33;;
15689;SDS011;7945;48.816;11.506;2023-07-22T03:19:12;3.15;;;2.30;;
15689;SDS011;7945;48.816;11.506;2023-07-22T03:21:39;2.70;;;2.38;;
15689;SDS011;7945;48.816;11.506;2023-07-22T03:24:07;2.80;;;2.53;;
15689;SDS011;7945;48.816;11.506;2023-07-22T03:26:34;2.67;;;2.08;;
15689;SDS011;7945;48.816;11.506;2023-07-22T03:29:01;2.95;;;2.42;;
15689;SDS011;7945;48.816;11.506;2023-07-22T03:31:30;4.13;;;2.42;;
15689;SDS011;7945;48.816;11.506;2023-07-22T03:33:57;2.53;;;2.33;;
15689;SDS011;7945;48.816;11.506;2023-07-22T03:36:24;2.88;;;2.17;;
15689;SDS011;7945;48.816;11.506;2023-07-22T03:38:51;2.55;;;2.00;;
15689;SDS011;7945;48.816;11.506;2023-07-22T03:41:20;2.80;;;2.30;;
15689;SDS011;7945;48.816;11.506;2023-07-22T03:43:46;4.38;;;2.20;;
15689;SDS011;7945;48.816;11.506;2023-07-22T03:46:13;2.63;;;2.10;;
15689;SDS011;7945;48.816;11.506;2023-07-22T03:48:40;4.53;;;2.75;;
15689;SDS011;7945;48.816;11.506;2023-07-22T03:51:07;3.80;;;2.78;;
15689;SDS011;7945;48.816;11.506;2023-07-22T03:53:33;2.97;;;2.60;;
15689;SDS011;7945;48.816;11.506;2023-07-22T03:56:00;2.92;;;2.30;;
15689;SDS011;7945;48.816;11.506;2023-07-22T03:58:28;2.63;;;2.20;;
15689;SDS011;7945;48.816;11.506;2023-07-22T04:00:55;4.78;;;2.75;;
15689;SDS011;7945;48.816;11.506;2023-07-22T04:03:22;4.10;;;2.97;;
15689;SDS011;7945;48.816;11.506;2023-07-22T04:05:53;3.85;;;3.00;;
15689;SDS011;7945;48.816;11.506;2023-07-22T04:08:20;4.43;;;2.75;;
15689;SDS011;7945;48.816;11.506;2023-07-22T04:10:50;5.13;;;2.35;;
15689;SDS011;7945;48.816;11.506;2023-07-22T04:13:18;3.13;;;2.50;;
15689;SDS011;7945;48.816;11.506;2023-07-22T04:15:46;3.47;;;2.80;;
15689;SDS011;7945;48.816;11.506;2023-07-22T04:18:14;2.90;;;2.47;;
15689;SDS011;7945;48.816;11.506;2023-07-22T04:20:41;3.83;;;2.33;;
15689;SDS011;7945;48.816;11.506;2023-07-22T04:23:08;3.70;;;2.63;;
15689;SDS011;7945;48.816;11.506;2023-07-22T04:25:38;2.40;;;2.20;;
15689;SDS011;7945;48.816;11.506;2023-07-22T04:28:05;2.83;;;2.20;;
15689;SDS011;7945;48.816;11.506;2023-07-22T04:30:33;3.05;;;2.47;;
15689;SDS011;7945;48.816;11.506;2023-07-22T04:33:01;3.03;;;2.58;;
15689;SDS011;7945;48.816;11.506;2023-07-22T04:35:30;3.30;;;2.60;;
15689;SDS011;7945;48.816;11.506;2023-07-22T04:37:57;3.42;;;2.83;;
15689;SDS011;7945;48.816;11.506;2023-07-22T04:40:24;5.00;;;2.70;;
15689;SDS011;7945;48.816;11.506;2023-07-22T04:42:51;4.60;;;3.20;;
15689;SDS011;7945;48.816;11.506;2023-07-22T04:45:18;3.17;;;2.47;;
15689;SDS011;7945;48.816;11.506;2023-07-22T04:47:45;3.55;;;2.53;;
15689;SDS011;7945;48.816;11.506;2023-07-22T04:50:15;2.67;;;2.42;;
15689;SDS011;7945;48.816;11.506;2023-07-22T04:52:42;4.30;;;2.90;;
15689;SDS011;7945;48.816;11.506;2023-07-22T04:55:11;4.35;;;2.63;;
15689;SDS011;7945;48.816;11.506;2023-07-22T04:57:38;3.20;;;2.75;;
15689;SDS011;7945;48.816;11.506;2023-07-22T05:00:06;4.35;;;2.45;;
15689;SDS011;7945;48.816;11.506;2023-07-22T05:02:37;3.22;;;2.60;;
15689;SDS011;7945;48.816;11.506;2023-07-22T05:05:04;4.22;;;2.78;;
15689;SDS011;7945;48.816;11.506;2023-07-22T05:07:33;4.93;;;2.60;;
15689;SDS011;7945;48.816;11.506;2023-07-22T05:09:59;5.63;;;2.67;;
15689;SDS011;7945;48.816;11.506;2023-07-22T05:12:26;4.32;;;2.85;;
15689;SDS011;7945;48.816;11.506;2023-07-22T05:14:53;3.45;;;2.72;;
15689;SDS011;7945;48.816;11.506;2023-07-22T05:17:20;4.10;;;2.97;;
15689;SDS011;7945;48.816;11.506;2023-07-22T05:19:47;3.03;;;2.80;;
15689;SDS011;7945;48.816;11.506;2023-07-22T05:22:14;3.15;;;2.60;;
15689;SDS011;7945;48.816;11.506;2023-07-22T05:24:43;3.63;;;2.63;;
15689;SDS011;7945;48.816;11.506;2023-07-22T05:27:09;4.00;;;3.15;;
15689;SDS011;7945;48.816;11.506;2023-07-22T05:29:36;3.78;;;3.03;;
15689;SDS011;7945;48.816;11.506;2023-07-22T05:32:03;3.30;;;2.88;;
15689;SDS011;7945;48.816;11.506;2023-07-22T05:34:31;4.78;;;2.95;;
15689;SDS011;7945;48.816;11.506;2023-07-22T05:36:57;4.32;;;2.75;;
15689;SDS011;7945;48.816;11.506;2023-07-22T05:39:24;4.03;;;2.88;;
15689;SDS011;7945;48.816;11.506;2023-07-22T05:41:53;3.25;;;2.58;;
15689;SDS011;7945;48.816;11.506;2023-07-22T05:44:20;4.30;;;2.90;;
15689;SDS011;7945;48.816;11.506;2023-07-22T05:46:47;3.92;;;2.95;;
15689;SDS011;7945;48.816;11.506;2023-07-22T05:49:14;4.35;;;2.97;;
15689;SDS011;7945;48.816;11.506;2023-07-22T05:51:41;3.25;;;2.70;;
15689;SDS011;7945;48.816;11.506;2023-07-22T05:54:08;3.13;;;2.80;;
15689;SDS011;7945;48.816;11.506;2023-07-22T05:56:34;3.42;;;2.60;;
15689;SDS011;7945;48.816;11.506;2023-07-22T05:59:03;4.30;;;2.90;;
15689;SDS011;7945;48.816;11.506;2023-07-22T06:01:29;3.42;;;2.90;;
15689;SDS011;7945;48.816;11.506;2023-07-22T06:03:56;2.78;;;2.50;;
15689;SDS011;7945;48.816;11.506;2023-07-22T06:06:23;3.63;;;2.72;;
15689;SDS011;7945;48.816;11.506;2023-07-22T06:08:50;2.83;;;2.55;;
15689;SDS011;7945;48.816;11.506;2023-07-22T06:11:17;3.25;;;2.72;;
15689;SDS011;7945;48.816;11.506;2023-07-22T06:15:37;3.03;;;2.70;;
15689;SDS011;7945;48.816;11.506;2023-07-22T06:18:03;3.85;;;2.70;;
15689;SDS011;7945;48.816;11.506;2023-07-22T06:20:33;2.70;;;2.40;;
15689;SDS011;7945;48.816;11.506;2023-07-22T06:23:01;4.35;;;2.90;;
15689;SDS011;7945;48.816;11.506;2023-07-22T06:25:27;3.13;;;2.83;;
15689;SDS011;7945;48.816;11.506;2023-07-22T06:27:54;4.00;;;2.42;;
15689;SDS011;7945;48.816;11.506;2023-07-22T06:30:21;3.45;;;2.75;;
15689;SDS011;7945;48.816;11.506;2023-07-22T06:32:49;3.80;;;2.72;;
15689;SDS011;7945;48.816;11.506;2023-07-22T06:35:16;4.82;;;2.50;;
15689;SDS011;7945;48.816;11.506;2023-07-22T06:37:43;3.17;;;2.60;;
15689;SDS011;7945;48.816;11.506;2023-07-22T06:40:10;3.40;;;2.50;;
15689;SDS011;7945;48.816;11.506;2023-07-22T06:42:37;3.72;;;2.90;;
15689;SDS011;7945;48.816;11.506;2023-07-22T06:45:04;3.20;;;2.47;;
15689;SDS011;7945;48.816;11.506;2023-07-22T06:47:31;3.67;;;2.80;;
15689;SDS011;7945;48.816;11.506;2023-07-22T06:50:00;2.83;;;2.35;;
15689;SDS011;7945;48.816;11.506;2023-07-22T06:52:27;3.80;;;2.88;;
15689;SDS011;7945;48.816;11.506;2023-07-22T06:54:54;2.83;;;2.50;;
15689;SDS011;7945;48.816;11.506;2023-07-22T06:57:21;4.28;;;2.90;;
15689;SDS011;7945;48.816;11.506;2023-07-22T06:59:48;2.88;;;2.35;;
15689;SDS011;7945;48.816;11.506;2023-07-22T07:02:16;3.25;;;2.67;;
15689;SDS011;7945;48.816;11.506;2023-07-22T07:04:43;4.20;;;2.58;;
15689;SDS011;7945;48.816;11.506;2023-07-22T07:07:11;2.70;;;2.38;;
15689;SDS011;7945;48.816;11.506;2023-07-22T07:09:38;5.80;;;3.17;;
15689;SDS011;7945;48.816;11.506;2023-07-22T07:12:06;3.33;;;2.97;;
15689;SDS011;7945;48.816;11.506;2023-07-22T07:14:33;4.22;;;2.42;;
15689;SDS011;7945;48.816;11.506;2023-07-22T07:17:00;3.63;;;2.53;;
15689;SDS011;7945;48.816;11.506;2023-07-22T07:19:28;4.43;;;2.85;;
15689;SDS011;7945;48.816;11.506;2023-07-22T07:21:55;2.78;;;2.40;;
15689;SDS011;7945;48.816;11.506;2023-07-22T07:24:23;4.38;;;2.90;;
15689;SDS011;7945;48.816;11.506;2023-07-22T07:26:52;3.22;;;2.55;;
15689;SDS011;7945;48.816;11.506;2023-07-22T07:29:19;2.78;;;2.33;;
15689;SDS011;7945;48.816;11.506;2023-07-22T07:31:45;3.13;;;2.50;;
15689;SDS011;7945;48.816;11.506;2023-07-22T07:34:12;5.25;;;2.50;;
15689;SDS011;7945;48.816;11.506;2023-07-22T07:36:39;3.95;;;2.40;;
15689;SDS011;7945;48.816;11.506;2023-07-22T07:39:06;3.05;;;2.47;;
15689;SDS011;7945;48.816;11.506;2023-07-22T07:41:34;3.35;;;2.40;;
15689;SDS011;7945;48.816;11.506;2023-07-22T07:44:01;3.55;;;2.67;;
15689;SDS011;7945;48.816;11.506;2023-07-22T07:46:28;3.30;;;2.53;;
15689;SDS011;7945;48.816;11.506;2023-07-22T07:48:55;3.58;;;2.20;;
15689;SDS011;7945;48.816;11.506;2023-07-22T07:51:24;2.88;;;2.17;;
15689;SDS011;7945;48.816;11.506;2023-07-22T07:53:52;2.92;;;2.10;;
15689;SDS011;7945;48.816;11.506;2023-07-22T07:56:19;2.35;;;2.00;;
15689;SDS011;7945;48.816;11.506;2023-07-22T07:58:49;3.35;;;2.50;;
15689;SDS011;7945;48.816;11.506;2023-07-22T08:01:16;2.92;;;2.10;;
15689;SDS011;7945;48.816;11.506;2023-07-22T08:03:43;5.18;;;1.95;;
15689;SDS011;7945;48.816;11.506;2023-07-22T08:06:11;2.55;;;1.73;;
15689;SDS011;7945;48.816;11.506;2023-07-22T08:08:38;3.88;;;1.70;;
15689;SDS011;7945;48.816;11.506;2023-07-22T08:11:06;2.58;;;2.25;;
15689;SDS011;7945;48.816;11.506;2023-07-22T08:13:34;3.03;;;2.20;;
15689;SDS011;7945;48.816;11.506;2023-07-22T08:16:03;3.38;;;2.35;;
15689;SDS011;7945;48.816;11.506;2023-07-22T08:18:32;2.15;;;1.95;;
15689;SDS011;7945;48.816;11.506;2023-07-22T08:21:00;3.22;;;2.03;;
15689;SDS011;7945;48.816;11.506;2023-07-22T08:23:27;2.28;;;2.08;;
15689;SDS011;7945;48.816;11.506;2023-07-22T08:25:54;4.20;;;2.42;;
15689;SDS011;7945;48.816;11.506;2023-07-22T08:28:21;2.17;;;1.90;;
15689;SDS011;7945;48.816;11.506;2023-07-22T08:30:48;3.50;;;2.00;;
15689;SDS011;7945;48.816;11.506;2023-07-22T08:33:17;2.47;;;1.95;;
15689;SDS011;7945;48.816;11.506;2023-07-22T08:35:43;2.70;;;2.50;;
15689;SDS011;7945;48.816;11.506;2023-07-22T08:38:12;4.95;;;2.15;;
15689;SDS011;7945;48.816;11.506;2023-07-22T08:40:40;2.80;;;1.90;;
15689;SDS011;7945;48.816;11.506;2023-07-22T08:43:08;3.85;;;2.15;;
15689;SDS011;7945;48.816;11.506;2023-07-22T08:45:36;2.80;;;2.05;;
15689;SDS011;7945;48.816;11.506;2023-07-22T08:48:04;2.53;;;1.92;;
15689;SDS011;7945;48.816;11.506;2023-07-22T08:50:37;2.60;;;1.98;;
15689;SDS011;7945;48.816;11.506;2023-07-22T08:53:10;4.70;;;1.83;;
15689;SDS011;7945;48.816;11.506;2023-07-22T08:55:38;2.83;;;2.20;;
15689;SDS011;7945;48.816;11.506;2023-07-22T08:58:05;2.50;;;2.03;;
15689;SDS011;7945;48.816;11.506;2023-07-22T09:00:33;2.10;;;1.90;;
15689;SDS011;7945;48.816;11.506;2023-07-22T09:03:01;2.97;;;2.05;;
15689;SDS011;7945;48.816;11.506;2023-07-22T09:05:30;3.72;;;2.05;;
15689;SDS011;7945;48.816;11.506;2023-07-22T09:07:59;2.63;;;1.83;;
15689;SDS011;7945;48.816;11.506;2023-07-22T09:10:28;3.55;;;2.00;;
15689;SDS011;7945;48.816;11.506;2023-07-22T09:12:55;2.45;;;1.92;;
15689;SDS011;7945;48.816;11.506;2023-07-22T09:15:23;2.15;;;1.73;;
15689;SDS011;7945;48.816;11.506;2023-07-22T09:17:51;2.75;;;1.85;;
15689;SDS011;7945;48.816;11.506;2023-07-22T09:20:17;1.67;;;1.58;;
15689;SDS011;7945;48.816;11.506;2023-07-22T09:22:46;1.88;;;1.60;;
15689;SDS011;7945;48.816;11.506;2023-07-22T09:25:16;1.85;;;1.60;;
15689;SDS011;7945;48.816;11.506;2023-07-22T09:27:43;2.03;;;1.70;;
15689;SDS011;7945;48.816;11.506;2023-07-22T09:30:20;2.30;;;1.67;;
15689;SDS011;7945;48.816;11.506;2023-07-22T09:32:48;1.50;;;1.40;;
15689;SDS011;7945;48.816;11.506;2023-07-22T09:35:15;1.50;;;1.40;;
15689;SDS011;7945;48.816;11.506;2023-07-22T09:37:43;1.65;;;1.33;;
15689;SDS011;7945;48.816;11.506;2023-07-22T09:40:13;2.20;;;1.40;;
15689;SDS011;7945;48.816;11.506;2023-07-22T09:42:43;1.60;;;1.50;;
15689;SDS011;7945;48.816;11.506;2023-07-22T09:45:14;2.92;;;1.50;;
15689;SDS011;7945;48.816;11.506;2023-07-22T09:47:42;1.50;;;1.40;;
15689;SDS011;7945;48.816;11.506;2023-07-22T09:50:16;2.85;;;1.42;;
15689;SDS011;7945;48.816;11.506;2023-07-22T09:52:47;2.28;;;1.60;;
15689;SDS011;7945;48.816;11.506;2023-07-22T09:55:17;2.40;;;1.60;;
15689;SDS011;7945;48.816;11.506;2023-07-22T09:57:45;2.78;;;1.90;;
15689;SDS011;7945;48.816;11.506;2023-07-22T10:00:14;1.77;;;1.50;;
15689;SDS011;7945;48.816;11.506;2023-07-22T10:02:43;1.85;;;1.33;;
15689;SDS011;7945;48.816;11.506;2023-07-22T10:05:11;1.92;;;1.50;;
15689;SDS011;7945;48.816;11.506;2023-07-22T10:07:45;2.70;;;1.55;;
15689;SDS011;7945;48.816;11.506;2023-07-22T10:10:15;2.20;;;1.60;;
15689;SDS011;7945;48.816;11.506;2023-07-22T10:12:44;2.15;;;1.58;;
15689;SDS011;7945;48.816;11.506;2023-07-22T10:15:11;2.50;;;1.55;;
15689;SDS011;7945;48.816;11.506;2023-07-22T10:17:40;1.30;;;1.20;;
15689;SDS011;7945;48.816;11.506;2023-07-22T10:20:07;2.40;;;1.40;;
15689;SDS011;7945;48.816;11.506;2023-07-22T10:22:40;1.70;;;1.30;;
15689;SDS011;7945;48.816;11.506;2023-07-22T10:25:07;2.90;;;1.60;;
15689;SDS011;7945;48.816;11.506;2023-07-22T10:27:36;1.42;;;1.30;;
15689;SDS011;7945;48.816;11.506;2023-07-22T10:30:05;4.50;;;1.70;;
15689;SDS011;7945;48.816;11.506;2023-07-22T10:32:33;2.20;;;1.50;;
15689;SDS011;7945;48.816;11.506;2023-07-22T10:35:02;6.82;;;1.58;;
15689;SDS011;7945;48.816;11.506;2023-07-22T10:37:30;1.40;;;1.30;;
15689;SDS011;7945;48.816;11.506;2023-07-22T10:40:01;1.80;;;1.40;;
15689;SDS011;7945;48.816;11.506;2023-07-22T10:42:51;2.17;;;1.40;;
15689;SDS011;7945;48.816;11.506;2023-07-22T10:45:26;2.97;;;1.48;;
15689;SDS011;7945;48.816;11.506;2023-07-22T10:48:02;2.05;;;1.60;;
15689;SDS011;7945;48.816;11.506;2023-07-22T10:50:41;2.15;;;1.45;;
15689;SDS011;7945;48.816;11.506;2023-07-22T10:53:09;1.65;;;1.55;;
15689;SDS011;7945;48.816;11.506;2023-07-22T10:59:00;1.80;;;1.45;;
15689;SDS011;7945;48.816;11.506;2023-07-22T11:01:32;1.50;;;1.40;;
15689;SDS011;7945;48.816;11.506;2023-07-22T11:04:11;2.13;;;1.20;;
15689;SDS011;7945;48.816;11.506;2023-07-22T11:06:55;4.05;;;1.52;;
15689;SDS011;7945;48.816;11.506;2023-07-22T11:09:35;1.77;;;1.50;;
15689;SDS011;7945;48.816;11.506;2023-07-22T11:12:04;2.45;;;1.63;;
15689;SDS011;7945;48.816;11.506;2023-07-22T11:14:34;1.83;;;1.63;;
15689;SDS011;7945;48.816;11.506;2023-07-22T11:17:04;2.13;;;1.38;;
15689;SDS011;7945;48.816;11.506;2023-07-22T11:19:33;2.45;;;1.48;;
15689;SDS011;7945;48.816;11.506;2023-07-22T11:22:00;2.97;;;1.35;;
15689;SDS011;7945;48.816;11.506;2023-07-22T11:24:27;1.77;;;1.23;;
15689;SDS011;7945;48.816;11.506;2023-07-22T11:26:54;1.52;;;1.40;;
15689;SDS011;7945;48.816;11.506;2023-07-22T11:29:22;5.03;;;1.70;;
15689;SDS011;7945;48.816;11.506;2023-07-22T11:31:50;1.50;;;1.40;;
15689;SDS011;7945;48.816;11.506;2023-07-22T11:34:18;1.85;;;1.40;;
15689;SDS011;7945;48.816;11.506;2023-07-22T11:36:46;1.88;;;1.30;;
15689;SDS011;7945;48.816;11.506;2023-07-22T11:39:14;2.47;;;1.60;;
15689;SDS011;7945;48.816;11.506;2023-07-22T11:41:42;1.17;;;1.08;;
15689;SDS011;7945;48.816;11.506;2023-07-22T11:44:10;2.85;;;1.40;;
15689;SDS011;7945;48.816;11.506;2023-07-22T11:46:46;1.40;;;1.30;;
15689;SDS011;7945;48.816;11.506;2023-07-22T11:49:22;3.58;;;1.60;;
15689;SDS011;7945;48.816;11.506;2023-07-22T11:51:57;3.22;;;1.60;;
15689;SDS011;7945;48.816;11.506;2023-07-22T11:54:24;1.98;;;1.40;;
15689;SDS011;7945;48.816;11.506;2023-07-22T11:56:52;2.63;;;1.63;;
15689;SDS011;7945;48.816;11.506;2023-07-22T11:59:32;2.20;;;1.30;;
15689;SDS011;7945;48.816;11.506;2023-07-22T12:02:00;1.80;;;1.40;;
15689;SDS011;7945;48.816;11.506;2023-07-22T12:04:31;1.95;;;1.42;;
15689;SDS011;7945;48.816;11.506;2023-07-22T12:06:58;3.55;;;1.42;;
15689;SDS011;7945;48.816;11.506;2023-07-22T12:09:25;2.13;;;1.30;;
15689;SDS011;7945;48.816;11.506;2023-07-22T12:11:55;2.85;;;1.88;;
15689;SDS011;7945;48.816;11.506;2023-07-22T12:14:23;1.98;;;1.30;;
15689;SDS011;7945;48.816;11.506;2023-07-22T12:16:53;2.95;;;1.50;;
15689;SDS011;7945;48.816;11.506;2023-07-22T12:19:22;2.63;;;1.98;;
15689;SDS011;7945;48.816;11.506;2023-07-22T12:21:51;2.30;;;1.65;;
15689;SDS011;7945;48.816;11.506;2023-07-22T12:24:18;1.40;;;1.30;;
15689;SDS011;7945;48.816;11.506;2023-07-22T12:26:44;2.30;;;1.42;;
15689;SDS011;7945;48.816;11.506;2023-07-22T12:29:11;3.33;;;1.50;;
15689;SDS011;7945;48.816;11.506;2023-07-22T12:31:38;2.42;;;1.48;;
15689;SDS011;7945;48.816;11.506;2023-07-22T12:34:05;2.17;;;1.63;;
15689;SDS011;7945;48.816;11.506;2023-07-22T12:36:31;2.70;;;1.77;;
15689;SDS011;7945;48.816;11.506;2023-07-22T12:39:00;3.42;;;1.60;;
15689;SDS011;7945;48.816;11.506;2023-07-22T12:41:27;5.85;;;1.60;;
15689;SDS011;7945;48.816;11.506;2023-07-22T12:43:53;2.35;;;1.55;;
15689;SDS011;7945;48.816;11.506;2023-07-22T12:46:20;2.67;;;1.65;;
15689;SDS011;7945;48.816;11.506;2023-07-22T12:48:47;19.70;;;2.58;;
15689;SDS011;7945;48.816;11.506;2023-07-22T12:51:14;4.00;;;1.70;;
15689;SDS011;7945;48.816;11.506;2023-07-22T12:53:41;2.75;;;1.40;;
15689;SDS011;7945;48.816;11.506;2023-07-22T12:56:09;4.05;;;1.50;;
15689;SDS011;7945;48.816;11.506;2023-07-22T12:58:36;3.50;;;1.42;;
15689;SDS011;7945;48.816;11.506;2023-07-22T13:01:03;2.58;;;1.70;;
15689;SDS011;7945;48.816;11.506;2023-07-22T13:03:30;3.28;;;1.48;;
15689;SDS011;7945;48.816;11.506;2023-07-22T13:05:56;3.50;;;1.60;;
15689;SDS011;7945;48.816;11.506;2023-07-22T13:08:23;2.00;;;1.58;;
15689;SDS011;7945;48.816;11.506;2023-07-22T13:10:50;3.25;;;1.70;;
15689;SDS011;7945;48.816;11.506;2023-07-22T13:13:18;4.10;;;1.67;;
15689;SDS011;7945;48.816;11.506;2023-07-22T13:15:45;1.95;;;1.50;;
15689;SDS011;7945;48.816;11.506;2023-07-22T13:18:12;2.25;;;1.40;;
15689;SDS011;7945;48.816;11.506;2023-07-22T13:20:41;3.28;;;1.75;;
15689;SDS011;7945;48.816;11.506;2023-07-22T13:23:08;2.22;;;1.70;;
15689;SDS011;7945;48.816;11.506;2023-07-22T13:25:35;1.52;;;1.40;;
15689;SDS011;7945;48.816;11.506;2023-07-22T13:28:02;2.38;;;1.60;;
15689;SDS011;7945;48.816;11.506;2023-07-22T13:30:30;1.92;;;1.63;;
15689;SDS011;7945;48.816;11.506;2023-07-22T13:32:57;2.53;;;1.60;;
15689;SDS011;7945;48.816;11.506;2023-07-22T13:35:24;3.20;;;1.52;;
15689;SDS011;7945;48.816;11.506;2023-07-22T13:37:50;2.85;;;1.50;;
15689;SDS011;7945;48.816;11.506;2023-07-22T13:40:17;3.72;;;1.73;;
15689;SDS011;7945;48.816;11.506;2023-07-22T13:42:44;1.42;;;1.33;;
15689;SDS011;7945;48.816;11.506;2023-07-22T13:45:11;2.50;;;1.63;;
15689;SDS011;7945;48.816;11.506;2023-07-22T13:47:39;3.03;;;1.77;;
15689;SDS011;7945;48.816;11.506;2023-07-22T13:50:06;4.57;;;1.88;;
15689;SDS011;7945;48.816;11.506;2023-07-22T13:52:33;4.15;;;1.77;;
15689;SDS011;7945;48.816;11.506;2023-07-22T13:55:00;3.15;;;1.60;;
15689;SDS011;7945;48.816;11.506;2023-07-22T13:57:27;2.10;;;1.70;;
15689;SDS011;7945;48.816;11.506;2023-07-22T13:59:54;5.25;;;1.90;;
15689;SDS011;7945;48.816;11.506;2023-07-22T14:02:21;2.60;;;1.85;;
15689;SDS011;7945;48.816;11.506;2023-07-22T14:04:49;2.67;;;1.70;;
15689;SDS011;7945;48.816;11.506;2023-07-22T14:07:16;2.10;;;1.60;;
15689;SDS011;7945;48.816;11.506;2023-07-22T14:09:43;1.92;;;1.45;;
15689;SDS011;7945;48.816;11.506;2023-07-22T14:12:10;2.25;;;1.50;;
15689;SDS011;7945;48.816;11.506;2023-07-22T14:14:37;2.45;;;1.50;;
15689;SDS011;7945;48.816;11.506;2023-07-22T14:17:04;2.67;;;1.55;;
15689;SDS011;7945;48.816;11.506;2023-07-22T14:19:31;3.72;;;1.38;;
15689;SDS011;7945;48.816;11.506;2023-07-22T14:21:59;1.85;;;1.48;;
15689;SDS011;7945;48.816;11.506;2023-07-22T14:24:26;2.33;;;1.70;;
15689;SDS011;7945;48.816;11.506;2023-07-22T14:26:53;1.77;;;1.60;;
15689;SDS011;7945;48.816;11.506;2023-07-22T14:29:20;1.67;;;1.40;;
15689;SDS011;7945;48.816;11.506;2023-07-22T14:31:46;1.92;;;1.63;;
15689;SDS011;7945;48.816;11.506;2023-07-22T14:34:13;1.80;;;1.48;;
15689;SDS011;7945;48.816;11.506;2023-07-22T14:36:40;2.55;;;1.60;;
15689;SDS011;7945;48.816;11.506;2023-07-22T14:39:10;1.67;;;1.50;;
15689;SDS011;7945;48.816;11.506;2023-07-22T14:41:36;3.85;;;1.65;;
15689;SDS011;7945;48.816;11.506;2023-07-22T14:44:04;3.20;;;1.50;;
15689;SDS011;7945;48.816;11.506;2023-07-22T14:46:31;1.60;;;1.50;;
15689;SDS011;7945;48.816;11.506;2023-07-22T14:48:57;2.53;;;1.60;;
15689;SDS011;7945;48.816;11.506;2023-07-22T14:51:24;2.95;;;1.42;;
15689;SDS011;7945;48.816;11.506;2023-07-22T14:53:51;2.75;;;1.30;;
15689;SDS011;7945;48.816;11.506;2023-07-22T14:56:19;1.88;;;1.65;;